createdAt,value
2018-06-01T00:00:25.893Z,10.50
2018-06-01T00:02:53.452Z,9.83
2018-06-01T00:05:21.037Z,10.67
2018-06-01T00:07:48.586Z,9.53
2018-06-01T00:10:16.182Z,9.13
2018-06-01T00:12:43.782Z,9.70
2018-06-01T00:15:11.343Z,9.87
2018-06-01T00:17:39.599Z,9.50
2018-06-01T00:20:07.968Z,9.80
2018-06-01T00:22:36.004Z,9.20
2018-06-01T00:25:04.367Z,10.87
2018-06-01T00:27:32.644Z,8.73
2018-06-01T00:30:01.023Z,10.00
2018-06-01T00:32:28.583Z,8.60
2018-06-01T00:34:56.142Z,7.80
2018-06-01T00:37:23.745Z,7.70
2018-06-01T00:39:51.381Z,6.30
2018-06-01T00:42:18.968Z,6.07
2018-06-01T00:44:47.215Z,5.30
2018-06-01T00:47:14.890Z,5.73
2018-06-01T00:52:14.603Z,5.60
2018-06-01T00:54:54.044Z,4.77
2018-06-01T00:57:21.579Z,5.07
2018-06-01T00:59:49.160Z,4.80
2018-06-01T01:02:17.124Z,5.00
2018-06-01T01:04:44.666Z,5.00
2018-06-01T01:07:12.198Z,4.83
2018-06-01T01:09:39.784Z,4.90
2018-06-01T01:12:07.319Z,5.13
2018-06-01T01:14:35.155Z,4.57
2018-06-01T01:17:02.761Z,4.30
2018-06-01T01:19:30.299Z,4.60
2018-06-01T01:21:57.862Z,4.60
2018-06-01T01:24:26.215Z,4.03
2018-06-01T01:26:53.835Z,3.73
2018-06-01T01:29:21.472Z,4.10
2018-06-01T01:31:48.993Z,4.13
2018-06-01T01:34:16.530Z,3.47
2018-06-01T01:36:44.848Z,4.20
2018-06-01T01:39:12.395Z,3.73
2018-06-01T01:41:39.990Z,3.47
2018-06-01T01:44:08.305Z,4.27
2018-06-01T01:46:35.826Z,3.67
2018-06-01T01:49:03.362Z,3.43
2018-06-01T01:51:30.889Z,3.80
2018-06-01T01:53:58.442Z,3.90
2018-06-01T01:56:25.974Z,3.80
2018-06-01T01:58:54.833Z,3.67
2018-06-01T02:01:22.357Z,3.43
2018-06-01T02:03:49.902Z,3.60
2018-06-01T02:06:18.269Z,3.67
2018-06-01T02:08:45.815Z,3.43
2018-06-01T02:11:13.358Z,3.80
2018-06-01T02:13:41.655Z,3.20
2018-06-01T02:16:10.510Z,3.30
2018-06-01T02:18:38.026Z,3.40
2018-06-01T02:21:05.571Z,3.20
2018-06-01T02:23:33.863Z,3.20
2018-06-01T02:26:01.839Z,2.80
2018-06-01T02:28:29.367Z,2.77
2018-06-01T02:30:57.659Z,2.87
2018-06-01T02:33:25.982Z,2.50
2018-06-01T02:35:53.501Z,2.47
2018-06-01T02:38:21.043Z,2.50
2018-06-01T02:40:48.567Z,2.50
2018-06-01T02:43:16.115Z,2.23
2018-06-01T02:45:44.451Z,2.43
2018-06-01T02:48:12.763Z,2.40
2018-06-01T02:50:40.994Z,2.10
2018-06-01T02:53:08.523Z,2.20
2018-06-01T02:55:36.069Z,2.30
2018-06-01T02:58:03.632Z,1.90
2018-06-01T03:00:31.554Z,2.10
2018-06-01T03:02:59.834Z,1.80
2018-06-01T03:05:28.523Z,1.90
2018-06-01T03:07:56.052Z,2.00
2018-06-01T03:10:23.854Z,1.90
2018-06-01T03:12:52.169Z,2.13
2018-06-01T03:15:19.704Z,2.17
2018-06-01T03:17:47.654Z,1.90
2018-06-01T03:20:16.118Z,1.90
2018-06-01T03:22:43.662Z,1.80
2018-06-01T03:25:11.190Z,2.00
2018-06-01T03:27:39.298Z,1.80
2018-06-01T03:30:06.800Z,2.27
2018-06-01T03:32:34.326Z,1.90
2018-06-01T03:35:02.894Z,2.30
2018-06-01T03:37:30.431Z,3.00
2018-06-01T03:39:57.990Z,2.03
2018-06-01T03:42:26.229Z,2.23
2018-06-01T03:44:54.543Z,3.17
2018-06-01T03:47:22.094Z,2.33
2018-06-01T03:49:49.627Z,2.43
2018-06-01T03:52:17.934Z,2.43
2018-06-01T03:54:45.828Z,1.87
2018-06-01T03:57:13.362Z,2.30
2018-06-01T03:59:40.987Z,4.17
2018-06-01T04:02:09.692Z,2.20
2018-06-01T04:04:37.215Z,2.17
2018-06-01T04:07:05.537Z,2.03
2018-06-01T04:09:33.086Z,2.00
2018-06-01T04:12:00.636Z,2.27
2018-06-01T04:14:28.930Z,2.30
2018-06-01T04:16:56.510Z,2.43
2018-06-01T04:19:24.849Z,2.20
2018-06-01T04:21:52.496Z,2.40
2018-06-01T04:24:20.046Z,2.20
2018-06-01T04:26:48.695Z,2.20
2018-06-01T04:29:16.266Z,2.07
2018-06-01T04:31:43.796Z,2.10
2018-06-01T04:34:11.350Z,1.90
2018-06-01T04:36:40.055Z,2.17
2018-06-01T04:39:07.606Z,2.07
2018-06-01T04:41:35.152Z,2.17
2018-06-01T04:44:04.269Z,2.10
2018-06-01T04:46:32.563Z,2.50
2018-06-01T04:49:00.099Z,2.20
2018-06-01T04:51:27.636Z,2.50
2018-06-01T04:53:55.458Z,2.00
2018-06-01T04:56:22.987Z,2.30
2018-06-01T04:58:50.934Z,2.47
2018-06-01T05:01:19.237Z,2.40
2018-06-01T05:03:46.915Z,2.13
2018-06-01T05:06:14.466Z,2.40
2018-06-01T05:08:41.991Z,2.13
2018-06-01T05:11:11.238Z,2.50
2018-06-01T05:13:39.031Z,2.07
2018-06-01T05:16:06.647Z,2.37
2018-06-01T05:18:34.178Z,2.57
2018-06-01T05:21:02.998Z,2.50
2018-06-01T05:23:30.526Z,2.53
2018-06-01T05:25:58.835Z,2.90
2018-06-01T05:28:26.387Z,2.60
2018-06-01T05:30:55.409Z,2.83
2018-06-01T05:33:22.951Z,2.60
2018-06-01T05:35:50.473Z,2.97
2018-06-01T05:38:18.146Z,3.20
2018-06-01T05:40:46.577Z,3.10
2018-06-01T05:43:14.134Z,3.07
2018-06-01T05:45:41.670Z,3.37
2018-06-01T05:48:09.292Z,3.20
2018-06-01T05:50:36.829Z,3.03
2018-06-01T05:53:04.373Z,3.60
2018-06-01T05:55:31.946Z,3.27
2018-06-01T05:57:59.474Z,3.30
2018-06-01T06:00:27.021Z,2.90
2018-06-01T06:02:55.185Z,3.23
2018-06-01T06:05:22.733Z,3.30
2018-06-01T06:07:51.038Z,3.27
2018-06-01T06:10:18.591Z,3.03
2018-06-01T06:12:46.127Z,3.70
2018-06-01T06:15:14.575Z,3.03
2018-06-01T06:17:42.163Z,2.80
2018-06-01T06:20:10.820Z,3.40
2018-06-01T06:22:38.418Z,2.67
2018-06-01T06:25:05.955Z,3.60
2018-06-01T06:27:33.568Z,3.37
2018-06-01T06:30:01.207Z,3.63
2018-06-01T06:32:29.646Z,2.87
2018-06-01T06:34:57.203Z,2.70
2018-06-01T06:37:24.768Z,3.53
2018-06-01T06:39:52.299Z,2.40
2018-06-01T06:42:19.902Z,3.17
2018-06-01T06:44:47.955Z,2.80
2018-06-01T06:47:15.510Z,2.57
2018-06-01T06:49:43.062Z,3.20
2018-06-01T06:52:10.609Z,3.10
2018-06-01T06:54:38.152Z,2.67
2018-06-01T06:57:05.687Z,3.03
2018-06-01T06:59:33.230Z,3.20
2018-06-01T07:02:00.770Z,3.37
2018-06-01T07:04:28.318Z,3.20
2018-06-01T07:06:55.857Z,3.40
2018-06-01T07:09:23.413Z,2.93
2018-06-01T07:11:50.939Z,3.10
2018-06-01T07:14:18.494Z,3.30
2018-06-01T07:16:46.030Z,3.47
2018-06-01T07:19:13.584Z,3.07
2018-06-01T07:21:41.110Z,2.87
2018-06-01T07:24:08.651Z,3.63
2018-06-01T07:26:37.311Z,3.43
2018-06-01T07:29:04.857Z,3.03
2018-06-01T07:31:32.395Z,3.70
2018-06-01T07:33:59.939Z,4.10
2018-06-01T07:36:27.478Z,3.90
2018-06-01T07:38:55.792Z,3.87
2018-06-01T07:41:23.332Z,4.00
2018-06-01T07:43:51.726Z,4.87
2018-06-01T07:46:19.266Z,4.93
2018-06-01T07:48:47.567Z,4.80
2018-06-01T07:51:15.105Z,4.90
2018-06-01T07:53:42.637Z,4.83
2018-06-01T07:56:10.230Z,4.30
2018-06-01T07:58:38.543Z,4.17
2018-06-01T08:01:06.170Z,4.17
2018-06-01T08:03:33.740Z,4.07
2018-06-01T08:06:02.056Z,4.30
2018-06-01T08:08:29.615Z,4.10
2018-06-01T08:10:57.166Z,3.67
2018-06-01T08:13:25.141Z,3.50
2018-06-01T08:15:52.669Z,3.40
2018-06-01T08:18:20.227Z,3.23
2018-06-01T08:20:47.833Z,3.60
2018-06-01T08:23:15.362Z,3.90
2018-06-01T08:25:42.902Z,3.17
2018-06-01T08:28:10.434Z,3.83
2018-06-01T08:30:37.995Z,3.60
2018-06-01T08:33:05.524Z,3.97
2018-06-01T08:35:33.846Z,3.90
2018-06-01T08:38:02.350Z,3.57
2018-06-01T08:40:29.890Z,3.60
2018-06-01T08:42:58.203Z,3.47
2018-06-01T08:45:26.439Z,3.40
2018-06-01T08:47:55.201Z,3.13
2018-06-01T08:50:22.746Z,3.53
2018-06-01T08:52:50.283Z,3.33
2018-06-01T08:55:18.727Z,3.30
2018-06-01T08:57:46.282Z,3.80
2018-06-01T09:00:13.862Z,3.70
2018-06-01T09:02:42.190Z,4.12
2018-06-01T09:05:10.300Z,3.05
2018-06-01T09:07:37.874Z,3.03
2018-06-01T09:10:05.503Z,3.30
2018-06-01T09:12:33.043Z,3.17
2018-06-01T09:15:00.612Z,2.65
2018-06-01T09:17:28.191Z,3.12
2018-06-01T09:19:56.515Z,3.17
2018-06-01T09:22:24.086Z,2.70
2018-06-01T09:24:51.634Z,2.83
2018-06-01T09:27:19.202Z,2.90
2018-06-01T09:29:46.791Z,3.27
2018-06-01T09:32:14.323Z,2.60
2018-06-01T09:34:41.857Z,2.07
2018-06-01T09:37:10.266Z,2.42
2018-06-01T09:39:37.823Z,2.60
2018-06-01T09:42:05.378Z,2.35
2018-06-01T09:44:33.110Z,2.55
2018-06-01T09:47:00.690Z,2.20
2018-06-01T09:49:28.255Z,2.12
2018-06-01T09:51:55.927Z,2.60
2018-06-01T09:54:23.493Z,2.30
2018-06-01T09:56:51.049Z,2.55
2018-06-01T09:59:18.626Z,2.40
2018-06-01T10:01:46.191Z,2.50
2018-06-01T10:04:13.759Z,2.53
2018-06-01T10:06:41.326Z,2.62
2018-06-01T10:09:09.669Z,2.45
2018-06-01T10:11:37.234Z,2.50
2018-06-01T10:14:05.019Z,2.60
2018-06-01T10:16:32.579Z,2.60
2018-06-01T10:19:00.130Z,2.42
2018-06-01T10:21:27.691Z,2.60
2018-06-01T10:23:55.257Z,2.45
2018-06-01T10:26:22.830Z,2.50
2018-06-01T10:28:51.158Z,2.33
2018-06-01T10:31:18.714Z,2.80
2018-06-01T10:33:46.291Z,2.35
2018-06-01T10:36:14.191Z,2.20
2018-06-01T10:38:41.746Z,1.90
2018-06-01T10:41:09.310Z,1.75
2018-06-01T10:43:36.878Z,2.20
2018-06-01T10:46:05.207Z,2.00
2018-06-01T10:48:33.667Z,2.25
2018-06-01T10:51:01.226Z,2.00
2018-06-01T10:53:28.879Z,2.30
2018-06-01T10:55:56.462Z,2.17
2018-06-01T10:58:24.064Z,2.37
2018-06-01T11:00:51.626Z,2.05
2018-06-01T11:03:19.176Z,2.10
2018-06-01T11:05:48.527Z,2.40
2018-06-01T11:08:16.940Z,2.15
2018-06-01T11:10:44.510Z,2.10
2018-06-01T11:13:12.087Z,2.62
2018-06-01T11:15:39.754Z,2.10
2018-06-01T11:18:07.313Z,2.40
2018-06-01T11:20:34.884Z,2.28
2018-06-01T11:23:03.419Z,2.12
2018-06-01T11:25:30.978Z,2.80
2018-06-01T11:27:58.536Z,2.62
2018-06-01T11:30:26.111Z,2.55
2018-06-01T11:32:53.662Z,2.70
2018-06-01T11:35:21.271Z,2.80
2018-06-01T11:37:48.842Z,2.85
2018-06-01T11:40:18.300Z,2.58
2018-06-01T11:42:45.864Z,3.28
2018-06-01T11:45:13.450Z,2.37
2018-06-01T11:47:41.847Z,2.30
2018-06-01T11:50:10.425Z,3.15
2018-06-01T11:52:38.042Z,2.60
2018-06-01T11:55:05.598Z,2.47
2018-06-01T11:57:33.224Z,2.20
2018-06-01T12:00:01.547Z,2.47
2018-06-01T12:02:29.131Z,2.58
2018-06-01T12:04:56.686Z,2.37
2018-06-01T12:07:24.275Z,2.83
2018-06-01T12:09:52.614Z,2.55
2018-06-01T12:12:20.175Z,2.72
2018-06-01T12:14:47.750Z,2.65
2018-06-01T12:17:15.307Z,2.75
2018-06-01T12:19:42.869Z,2.60
2018-06-01T12:22:10.525Z,2.90
2018-06-01T12:24:38.086Z,2.45
2018-06-01T12:27:05.642Z,2.65
2018-06-01T12:29:33.300Z,2.72
2018-06-01T12:32:01.050Z,3.00
2018-06-01T12:34:28.610Z,2.62
2018-06-01T12:36:56.430Z,2.72
2018-06-01T12:39:25.523Z,2.87
2018-06-01T12:41:53.849Z,3.40
2018-06-01T12:44:21.438Z,2.75
2018-06-01T12:46:48.992Z,2.62
2018-06-01T12:49:16.963Z,3.10
2018-06-01T12:51:44.516Z,2.70
2018-06-01T12:54:12.115Z,2.75
2018-06-01T12:56:40.291Z,2.50
2018-06-01T12:59:08.622Z,2.75
2018-06-01T13:01:36.187Z,2.83
2018-06-01T13:04:03.765Z,3.00
2018-06-01T13:06:31.327Z,2.95
2018-06-01T13:08:58.953Z,2.67
2018-06-01T13:11:26.450Z,2.95
2018-06-01T13:13:54.021Z,2.78
2018-06-01T13:16:21.586Z,2.60
2018-06-01T13:18:49.146Z,3.00
2018-06-01T13:21:16.719Z,3.10
2018-06-01T13:23:44.264Z,2.83
2018-06-01T13:26:11.836Z,2.80
2018-06-01T13:28:40.571Z,2.80
2018-06-01T13:31:08.142Z,3.03
2018-06-01T13:33:35.691Z,3.75
2018-06-01T13:36:04.390Z,3.75
2018-06-01T13:38:32.010Z,2.30
2018-06-01T13:40:59.570Z,2.58
2018-06-01T13:43:27.135Z,2.67
2018-06-01T13:45:54.729Z,2.53
2018-06-01T13:48:22.297Z,2.62
2018-06-01T13:50:49.855Z,2.80
2018-06-01T13:53:17.850Z,2.80
2018-06-01T13:55:45.448Z,2.80
2018-06-01T13:58:13.027Z,2.97
2018-06-01T14:00:40.612Z,2.70
2018-06-01T14:03:08.163Z,3.00
2018-06-01T14:05:35.731Z,2.70
2018-06-01T14:08:04.211Z,3.30
2018-06-01T14:10:31.855Z,2.90
2018-06-01T14:12:59.406Z,2.75
2018-06-01T14:15:26.989Z,3.25
2018-06-01T14:17:54.615Z,2.62
2018-06-01T14:20:22.944Z,2.72
2018-06-01T14:22:50.506Z,2.72
2018-06-01T14:25:18.222Z,2.83
2018-06-01T14:27:45.798Z,3.10
2018-06-01T14:30:13.379Z,2.78
2018-06-01T14:32:40.962Z,2.60
2018-06-01T14:35:08.522Z,3.28
2018-06-01T14:37:36.167Z,3.12
2018-06-01T14:40:04.438Z,2.90
2018-06-01T14:42:32.750Z,3.00
2018-06-01T14:45:00.311Z,3.12
2018-06-01T14:47:27.875Z,2.75
2018-06-01T14:49:56.659Z,2.75
2018-06-01T14:52:24.442Z,2.75
2018-06-01T14:54:52.778Z,2.95
2018-06-01T14:57:20.338Z,3.22
2018-06-01T14:59:47.882Z,3.30
2018-06-01T15:02:15.488Z,3.28
2018-06-01T15:04:43.064Z,2.72
2018-06-01T15:07:13.410Z,3.37
2018-06-01T15:09:41.988Z,3.22
2018-06-01T15:12:09.587Z,3.10
2018-06-01T15:14:37.346Z,3.22
2018-06-01T15:17:04.915Z,3.22
2018-06-01T15:19:32.655Z,2.95
2018-06-01T15:22:00.236Z,3.28
2018-06-01T15:24:27.809Z,2.75
2018-06-01T15:26:55.551Z,3.17
2018-06-01T15:29:23.130Z,2.85
2018-06-01T15:31:50.685Z,3.12
2018-06-01T15:34:18.995Z,3.15
2018-06-01T15:36:47.526Z,3.17
2018-06-01T15:39:15.095Z,3.20
2018-06-01T15:41:42.655Z,2.37
2018-06-01T15:44:10.731Z,2.78
2018-06-01T15:46:38.366Z,3.37
2018-06-01T15:49:05.960Z,3.28
2018-06-01T15:51:33.572Z,3.03
2018-06-01T15:54:01.923Z,3.33
2018-06-01T15:56:29.499Z,2.60
2018-06-01T15:58:57.849Z,2.90
2018-06-01T16:01:25.538Z,3.05
2018-06-01T16:03:53.872Z,2.50
2018-06-01T16:06:21.450Z,3.28
2018-06-01T16:08:49.932Z,2.70
2018-06-01T16:11:18.286Z,2.92
2018-06-01T16:13:45.845Z,2.92
2018-06-01T16:16:13.447Z,3.05
2018-06-01T16:18:41.035Z,3.08
2018-06-01T16:21:09.367Z,2.80
2018-06-01T16:23:36.943Z,3.35
2018-06-01T16:26:04.516Z,3.00
2018-06-01T16:28:33.780Z,2.90
2018-06-01T16:31:01.363Z,2.87
2018-06-01T16:33:28.925Z,2.53
2018-06-01T16:35:57.294Z,3.30
2018-06-01T16:38:25.091Z,3.00
2018-06-01T16:40:53.425Z,2.90
2018-06-01T16:43:20.993Z,2.78
2018-06-01T16:45:48.622Z,3.00
2018-06-01T16:48:16.198Z,2.83
2018-06-01T16:50:43.771Z,3.30
2018-06-01T16:53:11.903Z,3.37
2018-06-01T16:55:39.718Z,3.00
2018-06-01T16:58:07.249Z,3.30
2018-06-01T17:00:35.559Z,3.10
2018-06-01T17:03:03.559Z,3.10
2018-06-01T17:05:31.094Z,2.97
2018-06-01T17:07:58.672Z,3.23
2018-06-01T17:10:27.043Z,2.90
2018-06-01T17:12:54.760Z,2.83
2018-06-01T17:15:23.074Z,2.87
2018-06-01T17:17:50.615Z,3.40
2018-06-01T17:20:18.278Z,3.20
2018-06-01T17:22:45.848Z,3.60
2018-06-01T17:25:14.272Z,3.30
2018-06-01T17:27:41.806Z,2.70
2018-06-01T17:30:09.347Z,2.80
2018-06-01T17:32:36.904Z,2.87
2018-06-01T17:35:04.440Z,3.23
2018-06-01T17:37:32.066Z,3.13
2018-06-01T17:39:59.591Z,3.00
2018-06-01T17:42:27.152Z,3.17
2018-06-01T17:44:54.996Z,2.80
2018-06-01T17:47:22.524Z,3.03
2018-06-01T17:49:50.077Z,3.17
2018-06-01T17:52:18.045Z,3.27
2018-06-01T17:54:45.592Z,3.47
2018-06-01T17:57:13.155Z,3.27
2018-06-01T17:59:41.057Z,3.10
2018-06-01T18:02:08.663Z,3.30
2018-06-01T18:04:36.215Z,3.47
2018-06-01T18:07:03.951Z,3.50
2018-06-01T18:09:32.470Z,2.70
2018-06-01T18:12:00.041Z,3.50
2018-06-01T18:14:27.586Z,3.33
2018-06-01T18:16:55.798Z,3.37
2018-06-01T18:19:23.343Z,3.60
2018-06-01T18:21:50.898Z,3.63
2018-06-01T18:24:18.459Z,3.80
2018-06-01T18:26:46.018Z,3.23
2018-06-01T18:29:13.558Z,3.30
2018-06-01T18:31:41.809Z,3.40
2018-06-01T18:34:09.353Z,3.20
2018-06-01T18:36:37.680Z,3.20
2018-06-01T18:39:05.216Z,3.43
2018-06-01T18:41:33.031Z,3.60
2018-06-01T18:44:00.622Z,3.30
2018-06-01T18:46:28.147Z,3.40
2018-06-01T18:48:56.118Z,3.27
2018-06-01T18:51:23.670Z,3.10
2018-06-01T18:53:51.229Z,3.50
2018-06-01T18:56:18.831Z,3.03
2018-06-01T18:58:47.538Z,4.00
2018-06-01T19:01:16.238Z,4.07
2018-06-01T19:03:43.773Z,3.30
2018-06-01T19:06:12.111Z,3.67
2018-06-01T19:08:40.063Z,3.23
2018-06-01T19:11:07.634Z,3.50
2018-06-01T19:13:35.202Z,3.47
2018-06-01T19:16:03.267Z,3.20
2018-06-01T19:18:30.802Z,2.90
2018-06-01T19:20:58.354Z,3.37
2018-06-01T19:23:26.815Z,3.40
2018-06-01T19:25:55.311Z,3.40
2018-06-01T19:28:22.835Z,2.93
2018-06-01T19:30:50.431Z,3.10
2018-06-01T19:33:17.958Z,2.97
2018-06-01T19:35:45.485Z,3.13
2018-06-01T19:38:13.032Z,3.20
2018-06-01T19:40:40.581Z,3.03
2018-06-01T19:43:08.222Z,3.00
2018-06-01T19:45:36.523Z,3.10
2018-06-01T19:48:05.019Z,3.10
2018-06-01T19:50:33.383Z,3.20
2018-06-01T19:53:02.516Z,3.20
2018-06-01T19:55:30.859Z,2.90
2018-06-01T19:57:58.443Z,3.20
2018-06-01T20:00:26.089Z,3.27
2018-06-01T20:02:53.619Z,3.20
2018-06-01T20:05:21.921Z,3.00
2018-06-01T20:07:49.450Z,3.87
2018-06-01T20:10:17.863Z,2.90
2018-06-01T20:12:45.411Z,3.17
2018-06-01T20:15:12.993Z,3.03
2018-06-01T20:17:40.552Z,3.13
2018-06-01T20:20:08.079Z,3.37
2018-06-01T20:22:36.390Z,2.80
2018-06-01T20:25:04.862Z,3.60
2018-06-01T20:27:32.991Z,3.40
2018-06-01T20:30:00.549Z,3.27
2018-06-01T20:32:28.074Z,3.17
2018-06-01T20:34:56.390Z,3.10
2018-06-01T20:37:23.931Z,3.40
2018-06-01T20:39:51.478Z,3.07
2018-06-01T20:42:19.932Z,3.13
2018-06-01T20:44:47.468Z,3.53
2018-06-01T20:47:15.766Z,3.10
2018-06-01T20:49:43.294Z,3.60
2018-06-01T20:52:12.265Z,3.60
2018-06-01T20:54:39.795Z,3.77
2018-06-01T20:57:07.339Z,4.23
2018-06-01T20:59:34.871Z,3.50
2018-06-01T21:02:03.781Z,3.90
2018-06-01T21:04:31.339Z,3.60
2018-06-01T21:06:59.632Z,3.50
2018-06-01T21:09:27.183Z,4.07
2018-06-01T21:11:54.725Z,3.83
2018-06-01T21:14:23.011Z,4.43
2018-06-01T21:16:50.550Z,4.67
2018-06-01T21:19:18.861Z,4.63
2018-06-01T21:21:46.403Z,4.00
2018-06-01T21:24:14.706Z,3.63
2018-06-01T21:26:42.243Z,3.90
2018-06-01T21:29:09.775Z,3.40
2018-06-01T21:31:37.311Z,3.90
2018-06-01T21:34:04.845Z,3.50
2018-06-01T21:36:32.413Z,3.60
2018-06-01T21:38:59.952Z,4.13
2018-06-01T21:41:27.473Z,3.40
2018-06-01T21:43:55.461Z,3.77
2018-06-01T21:46:23.758Z,3.80
2018-06-01T21:48:51.285Z,3.87
2018-06-01T21:51:19.645Z,3.90
2018-06-01T21:53:47.178Z,4.00
2018-06-01T21:56:14.714Z,4.30
2018-06-01T21:58:42.242Z,3.97
2018-06-01T22:01:10.757Z,3.87
2018-06-01T22:03:38.282Z,3.70
2018-06-01T22:06:05.819Z,4.27
2018-06-01T22:08:34.102Z,3.83
2018-06-01T22:11:01.638Z,3.73
2018-06-01T22:13:29.187Z,4.10
2018-06-01T22:15:57.561Z,3.67
2018-06-01T22:18:25.159Z,4.00
2018-06-01T22:20:52.692Z,4.40
2018-06-01T22:23:20.553Z,3.90
2018-06-01T22:25:49.554Z,3.90
2018-06-01T22:28:17.343Z,4.13
2018-06-01T22:30:44.907Z,4.07
2018-06-01T22:33:12.432Z,3.67
2018-06-01T22:35:39.985Z,4.43
2018-06-01T22:38:07.502Z,4.30
2018-06-01T22:40:35.046Z,4.37
2018-06-01T22:43:02.973Z,4.43
2018-06-01T22:45:30.503Z,4.77
2018-06-01T22:47:58.823Z,4.93
2018-06-01T22:50:26.595Z,4.27
2018-06-01T22:52:54.164Z,4.77
2018-06-01T22:55:21.642Z,4.67
2018-06-01T22:57:49.892Z,4.40
2018-06-01T23:00:32.415Z,3.93
2018-06-01T23:02:59.951Z,3.97
2018-06-01T23:05:27.627Z,4.40
2018-06-01T23:07:56.172Z,4.73
2018-06-01T23:10:24.487Z,4.63
2018-06-01T23:12:52.029Z,4.60
2018-06-01T23:15:19.562Z,4.70
2018-06-01T23:17:48.866Z,4.70
2018-06-01T23:20:17.182Z,5.07
2018-06-01T23:22:44.734Z,4.70
2018-06-01T23:25:12.262Z,4.90
2018-06-01T23:27:41.375Z,4.80
2018-06-01T23:30:08.907Z,5.47
2018-06-01T23:32:36.466Z,5.00
2018-06-01T23:35:04.929Z,4.97
2018-06-01T23:37:33.083Z,5.07
2018-06-01T23:40:00.610Z,4.80
2018-06-01T23:42:28.159Z,5.20
2018-06-01T23:44:56.231Z,4.50
2018-06-01T23:47:25.870Z,4.60
2018-06-01T23:49:53.401Z,4.77
2018-06-01T23:52:21.790Z,4.87
2018-06-01T23:54:49.364Z,4.83
2018-06-01T23:57:16.889Z,4.73
2018-06-01T23:59:45.202Z,5.33
